createdAt,value
2018-05-08T00:00:43.141Z,54.40
2018-05-08T00:03:10.920Z,54.30
2018-05-08T00:05:38.640Z,54.20
2018-05-08T00:08:06.311Z,54.20
2018-05-08T00:10:37.404Z,54.20
2018-05-08T00:13:05.000Z,54.20
2018-05-08T00:15:32.931Z,54.20
2018-05-08T00:18:00.281Z,54.00
2018-05-08T00:20:28.373Z,54.10
2018-05-08T00:22:55.840Z,53.90
2018-05-08T00:25:25.070Z,54.00
2018-05-08T00:27:52.653Z,53.80
2018-05-08T00:30:20.150Z,53.80
2018-05-08T00:32:47.671Z,54.10
2018-05-08T00:35:15.220Z,54.10
2018-05-08T00:37:43.285Z,54.10
2018-05-08T00:40:11.643Z,54.20
2018-05-08T00:42:38.981Z,54.20
2018-05-08T00:45:06.440Z,54.40
2018-05-08T00:47:34.630Z,54.30
2018-05-08T00:50:02.142Z,54.30
2018-05-08T00:52:29.540Z,54.20
2018-05-08T00:55:06.123Z,54.10
2018-05-08T00:57:33.680Z,53.80
2018-05-08T01:00:01.521Z,53.80
2018-05-08T01:02:29.739Z,54.00
2018-05-08T01:04:58.385Z,53.90
2018-05-08T01:07:30.031Z,54.10
2018-05-08T01:09:57.320Z,54.60
2018-05-08T01:12:25.681Z,54.80
2018-05-08T01:14:54.154Z,54.90
2018-05-08T01:17:21.561Z,55.10
2018-05-08T01:19:49.160Z,55.00
2018-05-08T01:22:16.981Z,55.30
2018-05-08T01:24:44.891Z,55.30
2018-05-08T01:27:13.543Z,55.80
2018-05-08T01:29:40.815Z,55.90
2018-05-08T01:32:09.051Z,55.90
2018-05-08T01:34:38.050Z,55.80
2018-05-08T01:37:07.782Z,55.80
2018-05-08T01:39:37.663Z,55.60
2018-05-08T01:42:07.142Z,55.60
2018-05-08T01:44:35.350Z,55.50
2018-05-08T01:47:02.820Z,55.50
2018-05-08T01:49:30.410Z,55.60
2018-05-08T01:51:57.951Z,56.30
2018-05-08T01:54:27.140Z,55.90
2018-05-08T01:56:54.681Z,56.10
2018-05-08T01:59:22.251Z,56.00
2018-05-08T02:01:49.610Z,55.90
2018-05-08T02:04:19.281Z,55.80
2018-05-08T02:06:47.990Z,55.80
2018-05-08T02:09:15.832Z,55.80
2018-05-08T02:11:45.111Z,55.70
2018-05-08T02:14:13.121Z,55.60
2018-05-08T02:16:40.651Z,55.50
2018-05-08T02:19:09.311Z,55.50
2018-05-08T02:21:36.922Z,55.40
2018-05-08T02:24:04.730Z,55.80
2018-05-08T02:26:32.734Z,55.90
2018-05-08T02:29:00.260Z,56.00
2018-05-08T02:31:42.702Z,56.30
2018-05-08T02:34:10.062Z,57.30
2018-05-08T02:36:38.401Z,58.70
2018-05-08T02:39:06.583Z,58.70
2018-05-08T02:41:34.252Z,59.40
2018-05-08T02:44:01.357Z,59.70
2018-05-08T02:46:28.977Z,60.80
2018-05-08T02:48:56.521Z,61.80
2018-05-08T02:51:24.561Z,63.20
2018-05-08T02:53:52.551Z,64.60
2018-05-08T02:56:20.661Z,65.20
2018-05-08T02:58:48.111Z,66.10
2018-05-08T03:01:16.461Z,68.20
2018-05-08T03:03:44.677Z,68.20
2018-05-08T03:06:13.731Z,69.60
2018-05-08T03:08:43.111Z,69.40
2018-05-08T03:11:11.587Z,70.30
2018-05-08T03:13:41.100Z,70.60
2018-05-08T03:16:11.520Z,71.00
2018-05-08T03:18:41.480Z,71.60
2018-05-08T03:21:11.920Z,72.60
2018-05-08T03:23:41.030Z,72.60
2018-05-08T03:26:11.303Z,73.10
2018-05-08T03:28:39.882Z,74.20
2018-05-08T03:31:11.710Z,75.50
2018-05-08T03:33:42.959Z,75.30
2018-05-08T03:36:16.501Z,74.30
2018-05-08T03:38:47.840Z,73.40
2018-05-08T03:41:21.015Z,71.10
2018-05-08T03:43:51.000Z,71.10
2018-05-08T03:46:19.631Z,69.90
2018-05-08T03:48:49.440Z,69.10
2018-05-08T03:51:17.683Z,68.30
2018-05-08T03:53:47.330Z,67.80
2018-05-08T03:56:18.391Z,67.40
2018-05-08T03:58:48.450Z,67.30
2018-05-08T04:01:35.034Z,67.70
2018-05-08T04:04:20.174Z,66.20
2018-05-08T04:07:06.220Z,62.30
2018-05-08T04:09:38.101Z,60.50
2018-05-08T04:12:11.470Z,60.20
2018-05-08T04:14:40.684Z,59.90
2018-05-08T04:17:09.270Z,58.40
2018-05-08T04:19:36.731Z,57.70
2018-05-08T04:22:04.880Z,57.70
2018-05-08T04:24:32.530Z,56.00
2018-05-08T04:27:01.051Z,54.70
2018-05-08T04:29:28.452Z,52.60
2018-05-08T04:31:57.043Z,52.10
2018-05-08T04:34:24.580Z,52.30
2018-05-08T04:36:51.951Z,48.40
2018-05-08T04:39:22.810Z,48.50
2018-05-08T04:41:50.971Z,48.70
2018-05-08T04:44:18.611Z,48.20
2018-05-08T04:46:45.990Z,47.60
2018-05-08T04:49:14.810Z,47.80
2018-05-08T04:51:43.771Z,47.80
2018-05-08T04:54:12.811Z,46.80
2018-05-08T04:56:40.781Z,46.20
2018-05-08T04:59:08.150Z,46.60
2018-05-08T05:01:38.090Z,44.30
2018-05-08T05:04:07.981Z,44.30
2018-05-08T05:06:36.221Z,41.60
2018-05-08T05:09:07.121Z,39.60
2018-05-08T05:11:34.428Z,39.60
2018-05-08T05:14:02.581Z,40.00
2018-05-08T05:16:32.340Z,39.90
2018-05-08T05:19:01.142Z,39.30
2018-05-08T05:21:28.580Z,38.90
2018-05-08T05:23:56.961Z,39.50
2018-05-08T05:26:24.520Z,39.40
2018-05-08T05:28:51.901Z,39.10
2018-05-08T05:31:23.181Z,40.20
2018-05-08T05:33:50.581Z,40.20
2018-05-08T05:36:18.154Z,40.40
2018-05-08T05:38:45.721Z,40.40
2018-05-08T05:41:13.143Z,40.60
2018-05-08T05:43:41.594Z,40.80
2018-05-08T05:46:09.102Z,40.00
2018-05-08T05:48:36.581Z,40.10
2018-05-08T05:51:06.751Z,41.10
2018-05-08T05:53:34.471Z,41.00
2018-05-08T05:56:03.251Z,41.90
2018-05-08T05:58:31.905Z,43.80
2018-05-08T06:00:59.441Z,44.50
2018-05-08T06:03:28.211Z,47.70
2018-05-08T06:05:55.791Z,47.70
2018-05-08T06:08:23.302Z,46.70
2018-05-08T06:10:50.761Z,47.00
2018-05-08T06:13:18.310Z,48.10
2018-05-08T06:15:46.012Z,47.90
2018-05-08T06:18:14.371Z,49.80
2018-05-08T06:20:46.121Z,49.70
2018-05-08T06:23:13.700Z,48.90
2018-05-08T06:25:41.021Z,49.10
2018-05-08T06:28:10.690Z,48.20
2018-05-08T06:30:39.091Z,50.10
2018-05-08T06:33:06.503Z,50.00
2018-05-08T06:35:37.063Z,49.60
2018-05-08T06:38:04.801Z,49.40
2018-05-08T06:40:32.901Z,50.10
2018-05-08T06:43:00.322Z,50.00
2018-05-08T06:45:29.581Z,50.30
2018-05-08T06:47:57.032Z,50.20
2018-05-08T06:50:26.861Z,49.90
2018-05-08T06:52:54.762Z,49.20
2018-05-08T06:55:25.181Z,48.40
2018-05-08T06:57:52.951Z,48.30
2018-05-08T07:00:20.843Z,47.20
2018-05-08T07:02:48.222Z,47.80
2018-05-08T07:05:16.061Z,47.10
2018-05-08T07:07:44.241Z,47.50
2018-05-08T07:10:12.861Z,47.40
2018-05-08T07:12:41.581Z,47.80
2018-05-08T07:15:08.981Z,45.60
2018-05-08T07:17:36.321Z,45.60
2018-05-08T07:20:03.761Z,46.10
2018-05-08T07:22:35.311Z,44.80
2018-05-08T07:25:04.751Z,46.10
2018-05-08T07:27:32.250Z,46.10
2018-05-08T07:29:59.769Z,46.20
2018-05-08T07:32:27.232Z,45.90
2018-05-08T07:34:56.951Z,46.20
2018-05-08T07:37:24.490Z,46.80
2018-05-08T07:39:53.011Z,45.50
2018-05-08T07:42:23.401Z,45.10
2018-05-08T07:44:50.651Z,45.40
2018-05-08T07:47:19.521Z,45.40
2018-05-08T07:49:49.211Z,46.10
2018-05-08T07:52:16.971Z,45.50
2018-05-08T07:54:47.012Z,45.30
2018-05-08T07:57:14.431Z,45.70
2018-05-08T07:59:42.651Z,45.40
2018-05-08T08:02:10.232Z,45.40
2018-05-08T08:04:37.681Z,45.70
2018-05-08T08:07:06.531Z,43.50
2018-05-08T08:09:34.880Z,43.40
2018-05-08T08:12:03.600Z,43.30
2018-05-08T08:14:36.003Z,43.80
2018-05-08T08:17:03.549Z,45.00
2018-05-08T08:19:32.061Z,44.20
2018-05-08T08:21:59.501Z,45.30
2018-05-08T08:24:27.311Z,43.50
2018-05-08T08:26:55.061Z,43.10
2018-05-08T08:29:26.081Z,44.50
2018-05-08T08:31:53.481Z,42.50
2018-05-08T08:34:21.381Z,43.20
2018-05-08T08:36:50.881Z,43.70
2018-05-08T08:39:18.321Z,43.00
2018-05-08T08:41:49.361Z,42.00
2018-05-08T08:44:16.800Z,42.60
2018-05-08T08:46:46.742Z,43.10
2018-05-08T08:49:18.051Z,43.70
2018-05-08T08:51:45.433Z,41.10
2018-05-08T08:54:12.942Z,42.20
2018-05-08T08:56:40.553Z,41.40
2018-05-08T08:59:10.342Z,42.10
2018-05-08T09:01:37.937Z,41.90
2018-05-08T09:04:06.449Z,40.80
2018-05-08T09:06:33.832Z,40.90
2018-05-08T09:09:01.142Z,41.10
2018-05-08T09:11:29.768Z,39.80
2018-05-08T09:13:58.773Z,41.20
2018-05-08T09:16:29.602Z,38.60
2018-05-08T09:18:57.852Z,37.80
2018-05-08T09:21:25.312Z,37.80
2018-05-08T09:23:52.845Z,37.90
2018-05-08T09:26:20.232Z,37.10
2018-05-08T09:28:50.232Z,37.20
2018-05-08T09:31:20.232Z,37.20
2018-05-08T09:33:47.733Z,37.40
2018-05-08T09:36:15.042Z,37.90
2018-05-08T09:38:44.292Z,38.10
2018-05-08T09:41:11.672Z,37.40
2018-05-08T09:47:12.043Z,38.30
2018-05-08T09:49:41.223Z,36.10
2018-05-08T09:52:11.002Z,36.10
2018-05-08T09:54:40.012Z,36.80
2018-05-08T09:57:07.604Z,35.90
2018-05-08T09:59:35.212Z,36.40
2018-05-08T10:02:02.655Z,36.70
2018-05-08T10:04:30.063Z,37.80
2018-05-08T10:06:57.597Z,36.90
2018-05-08T10:09:25.064Z,34.00
2018-05-08T10:11:52.802Z,35.70
2018-05-08T10:14:20.322Z,35.50
2018-05-08T10:16:48.152Z,36.10
2018-05-08T10:19:15.596Z,35.20
2018-05-08T10:21:43.092Z,35.30
2018-05-08T10:24:10.551Z,35.40
2018-05-08T10:26:38.125Z,35.40
2018-05-08T10:29:06.322Z,36.20
2018-05-08T10:31:33.916Z,36.10
2018-05-08T10:34:01.972Z,35.40
2018-05-08T10:36:30.392Z,35.80
2018-05-08T10:38:57.962Z,36.30
2018-05-08T10:41:25.542Z,34.20
2018-05-08T10:43:53.144Z,35.10
2018-05-08T10:46:20.752Z,34.70
2018-05-08T10:48:48.415Z,35.60
2018-05-08T10:51:16.022Z,35.60
2018-05-08T10:53:43.524Z,34.00
2018-05-08T10:56:11.113Z,33.30
2018-05-08T10:58:39.712Z,34.20
2018-05-08T11:01:07.322Z,34.10
2018-05-08T11:03:35.073Z,34.50
2018-05-08T11:06:02.713Z,35.20
2018-05-08T11:08:30.232Z,34.90
2018-05-08T11:10:58.072Z,34.00
2018-05-08T11:13:25.742Z,35.40
2018-05-08T11:15:53.361Z,35.40
2018-05-08T11:18:21.552Z,35.70
2018-05-08T11:20:51.412Z,36.00
2018-05-08T11:23:19.143Z,36.30
2018-05-08T11:25:46.882Z,35.90
2018-05-08T11:28:17.702Z,36.40
2018-05-08T11:30:45.412Z,35.90
2018-05-08T11:33:12.862Z,37.10
2018-05-08T11:35:40.252Z,36.30
2018-05-08T11:38:10.303Z,37.10
2018-05-08T11:40:38.812Z,36.00
2018-05-08T11:43:08.862Z,36.20
2018-05-08T11:45:40.602Z,35.30
2018-05-08T11:48:13.203Z,35.90
2018-05-08T11:50:44.632Z,37.00
2018-05-08T11:53:12.866Z,36.60
2018-05-08T11:55:40.581Z,36.70
2018-05-08T11:58:08.012Z,37.10
2018-05-08T12:00:36.317Z,37.30
2018-05-08T12:03:04.022Z,36.60
2018-05-08T12:05:32.314Z,35.90
2018-05-08T12:07:59.722Z,36.30
2018-05-08T12:10:27.743Z,36.90
2018-05-08T12:12:55.171Z,36.40
2018-05-08T12:15:23.604Z,36.60
2018-05-08T12:17:52.852Z,36.70
2018-05-08T12:20:20.481Z,37.40
2018-05-08T12:22:48.143Z,38.10
2018-05-08T12:25:16.312Z,39.70
2018-05-08T12:27:46.422Z,40.60
2018-05-08T12:30:15.109Z,40.90
2018-05-08T12:32:42.591Z,41.50
2018-05-08T12:35:25.873Z,42.00
2018-05-08T12:37:54.172Z,42.40
2018-05-08T12:40:23.052Z,42.40
2018-05-08T12:42:52.393Z,42.30
2018-05-08T12:45:22.461Z,43.20
2018-05-08T12:47:52.702Z,42.30
2018-05-08T12:50:22.507Z,42.30
2018-05-08T12:52:53.715Z,41.20
2018-05-08T12:55:21.222Z,41.20
2018-05-08T12:57:48.982Z,40.60
2018-05-08T13:00:17.092Z,41.50
2018-05-08T13:02:44.631Z,41.20
2018-05-08T13:05:11.954Z,41.40
2018-05-08T13:07:40.274Z,41.40
2018-05-08T13:10:07.922Z,41.50
2018-05-08T13:12:35.995Z,41.20
2018-05-08T13:15:03.761Z,41.70
2018-05-08T13:17:31.151Z,41.20
2018-05-08T13:19:58.481Z,41.60
2018-05-08T13:22:25.982Z,41.70
2018-05-08T13:24:54.052Z,42.90
2018-05-08T13:27:22.134Z,42.90
2018-05-08T13:29:51.362Z,42.90
2018-05-08T13:32:20.752Z,42.70
2018-05-08T13:34:52.782Z,43.70
2018-05-08T13:37:20.513Z,42.30
2018-05-08T13:39:50.073Z,42.70
2018-05-08T13:42:17.632Z,41.50
2018-05-08T13:44:45.114Z,42.80
2018-05-08T13:47:12.993Z,41.50
2018-05-08T13:49:40.167Z,41.30
2018-05-08T13:52:07.662Z,40.80
2018-05-08T13:54:34.765Z,41.40
2018-05-08T13:57:02.342Z,41.80
2018-05-08T13:59:30.323Z,42.20
2018-05-08T14:01:58.642Z,42.40
2018-05-08T14:04:26.512Z,42.40
2018-05-08T14:06:54.033Z,42.70
2018-05-08T14:09:21.502Z,41.90
2018-05-08T14:11:49.023Z,41.20
2018-05-08T14:14:17.045Z,40.50
2018-05-08T14:16:44.481Z,40.30
2018-05-08T14:19:12.065Z,40.60
2018-05-08T14:21:39.412Z,40.50
2018-05-08T14:24:07.341Z,41.40
2018-05-08T14:26:34.894Z,41.60
2018-05-08T14:29:02.423Z,42.50
2018-05-08T14:31:29.935Z,42.10
2018-05-08T14:33:57.492Z,41.10
2018-05-08T14:36:24.960Z,42.10
2018-05-08T14:38:52.631Z,41.10
2018-05-08T14:41:20.402Z,41.60
2018-05-08T14:43:48.460Z,41.70
2018-05-08T14:46:15.882Z,41.30
2018-05-08T14:48:44.172Z,40.60
2018-05-08T14:51:11.974Z,40.60
2018-05-08T14:53:39.667Z,41.00
2018-05-08T14:56:07.233Z,40.90
2018-05-08T14:58:34.742Z,40.80
2018-05-08T15:01:02.252Z,40.30
2018-05-08T15:03:30.189Z,41.30
2018-05-08T15:05:57.412Z,41.30
2018-05-08T15:08:25.173Z,40.40
2018-05-08T15:10:52.823Z,41.30
2018-05-08T15:13:20.393Z,41.60
2018-05-08T15:15:50.392Z,40.80
2018-05-08T15:18:18.012Z,40.90
2018-05-08T15:20:47.922Z,41.00
2018-05-08T15:23:15.992Z,40.40
2018-05-08T15:25:44.343Z,41.20
2018-05-08T15:28:11.672Z,40.80
2018-05-08T15:30:39.920Z,41.40
2018-05-08T15:33:08.302Z,42.10
2018-05-08T15:35:35.920Z,42.00
2018-05-08T15:38:04.402Z,39.90
2018-05-08T15:40:31.841Z,39.80
2018-05-08T15:42:59.532Z,40.40
2018-05-08T15:45:27.372Z,42.20
2018-05-08T15:47:55.812Z,41.80
2018-05-08T15:50:24.261Z,40.50
2018-05-08T15:52:51.972Z,40.40
2018-05-08T15:55:20.527Z,39.90
2018-05-08T15:57:49.912Z,39.90
2018-05-08T16:00:17.576Z,40.00
2018-05-08T16:02:45.106Z,40.30
2018-05-08T16:05:12.661Z,41.70
2018-05-08T16:07:40.201Z,41.30
2018-05-08T16:10:07.889Z,41.10
2018-05-08T16:12:35.472Z,40.50
2018-05-08T16:15:03.063Z,41.10
2018-05-08T16:17:30.572Z,41.90
2018-05-08T16:19:58.112Z,41.90
2018-05-08T16:22:25.946Z,42.90
2018-05-08T16:24:54.372Z,41.70
2018-05-08T16:27:21.983Z,41.70
2018-05-08T16:29:49.372Z,42.10
2018-05-08T16:32:16.991Z,42.20
2018-05-08T16:34:45.572Z,42.00
2018-05-08T16:37:13.212Z,41.90
2018-05-08T16:39:40.823Z,42.00
2018-05-08T16:42:08.272Z,42.40
2018-05-08T16:44:35.799Z,42.70
2018-05-08T16:47:03.352Z,43.00
2018-05-08T16:49:31.353Z,43.10
2018-05-08T16:51:58.897Z,43.30
2018-05-08T16:54:26.412Z,43.30
2018-05-08T16:56:54.062Z,43.20
2018-05-08T16:59:21.642Z,43.60
2018-05-08T17:01:49.273Z,43.50
2018-05-08T17:04:17.023Z,43.70
2018-05-08T17:09:34.832Z,41.80
2018-05-08T17:12:06.483Z,41.50
2018-05-08T17:14:34.332Z,39.80
2018-05-08T17:17:01.982Z,39.10
2018-05-08T17:19:30.463Z,39.70
2018-05-08T17:21:57.912Z,39.70
2018-05-08T17:24:26.273Z,39.60
2018-05-08T17:26:53.882Z,40.40
2018-05-08T17:29:21.393Z,41.10
2018-05-08T17:31:49.112Z,41.60
2018-05-08T17:34:16.328Z,41.90
2018-05-08T17:36:43.802Z,42.10
2018-05-08T17:39:11.444Z,41.90
2018-05-08T17:41:39.023Z,42.50
2018-05-08T17:44:06.811Z,42.10
2018-05-08T17:46:35.173Z,41.90
2018-05-08T17:49:02.642Z,41.80
2018-05-08T17:51:30.253Z,41.90
2018-05-08T17:53:57.982Z,42.60
2018-05-08T17:56:25.642Z,42.30
2018-05-08T17:58:53.282Z,42.40
2018-05-08T18:01:20.717Z,42.60
2018-05-08T18:03:48.332Z,42.60
2018-05-08T18:06:16.107Z,43.20
2018-05-08T18:08:43.682Z,43.30
2018-05-08T18:11:11.521Z,43.80
2018-05-08T18:13:38.973Z,44.10
2018-05-08T18:16:10.872Z,44.50
2018-05-08T18:18:38.542Z,44.80
2018-05-08T18:21:06.302Z,45.40
2018-05-08T18:23:33.972Z,45.70
2018-05-08T18:26:01.862Z,45.80
2018-05-08T18:28:29.412Z,46.10
2018-05-08T18:31:03.472Z,46.80
2018-05-08T18:33:31.302Z,46.80
2018-05-08T18:36:01.064Z,46.60
2018-05-08T18:38:31.432Z,46.60
2018-05-08T18:40:59.832Z,47.00
2018-05-08T18:43:27.621Z,47.00
2018-05-08T18:45:55.952Z,47.40
2018-05-08T18:48:23.341Z,47.70
2018-05-08T18:50:51.122Z,47.90
2018-05-08T18:53:18.852Z,48.50
2018-05-08T18:55:46.283Z,48.80
2018-05-08T18:58:13.771Z,49.20
2018-05-08T19:00:47.612Z,49.60
2018-05-08T19:03:15.315Z,49.50
2018-05-08T19:05:44.822Z,50.10
2018-05-08T19:08:13.036Z,50.60
2018-05-08T19:10:40.712Z,50.50
2018-05-08T19:13:08.162Z,50.60
2018-05-08T19:15:41.686Z,50.60
2018-05-08T19:18:09.282Z,51.00
2018-05-08T19:20:36.833Z,51.30
2018-05-08T19:23:04.553Z,51.50
2018-05-08T19:25:32.152Z,51.50
2018-05-08T19:28:05.562Z,52.00
2018-05-08T19:30:33.312Z,52.10
2018-05-08T19:33:05.631Z,52.80
2018-05-08T19:35:39.132Z,52.70
2018-05-08T19:38:22.227Z,52.70
2018-05-08T19:40:50.652Z,53.30
2018-05-08T19:43:18.282Z,53.30
2018-05-08T19:45:45.762Z,53.40
2018-05-08T19:48:15.324Z,53.80
2018-05-08T19:50:42.892Z,53.90
2018-05-08T19:53:10.541Z,54.20
2018-05-08T19:55:39.721Z,54.50
2018-05-08T19:58:12.942Z,54.70
2018-05-08T20:00:42.081Z,54.90
2018-05-08T20:03:10.342Z,55.00
2018-05-08T20:05:38.043Z,55.10
2018-05-08T20:08:08.402Z,55.80
2018-05-08T20:10:36.022Z,55.80
2018-05-08T20:13:04.282Z,56.30
2018-05-08T20:15:31.962Z,56.20
2018-05-08T20:17:59.672Z,56.50
2018-05-08T20:20:28.498Z,56.70
2018-05-08T20:22:59.282Z,56.70
2018-05-08T20:25:26.712Z,56.70
2018-05-08T20:27:55.232Z,57.10
2018-05-08T20:30:22.832Z,57.00
2018-05-08T20:32:50.740Z,57.30
2018-05-08T20:35:26.272Z,57.40
2018-05-08T20:37:54.192Z,57.50
2018-05-08T20:40:23.077Z,57.70
2018-05-08T20:42:50.712Z,57.80
2018-05-08T20:45:19.162Z,58.60
2018-05-08T20:47:46.972Z,58.50
2018-05-08T20:50:14.653Z,59.30
2018-05-08T20:52:42.115Z,59.60
2018-05-08T20:55:11.354Z,60.10
2018-05-08T20:57:38.884Z,60.50
2018-05-08T21:00:06.628Z,60.90
2018-05-08T21:02:33.972Z,61.50
2018-05-08T21:05:01.513Z,62.00
2018-05-08T21:07:29.512Z,62.40
2018-05-08T21:09:57.092Z,62.70
2018-05-08T21:12:26.952Z,62.90
2018-05-08T21:14:54.852Z,62.90
2018-05-08T21:17:22.462Z,63.20
2018-05-08T21:19:51.313Z,63.40
2018-05-08T21:22:18.753Z,63.90
2018-05-08T21:24:47.152Z,64.40
2018-05-08T21:27:16.042Z,65.20
2018-05-08T21:29:51.612Z,65.30
2018-05-08T21:32:19.085Z,65.30
2018-05-08T21:34:47.019Z,65.70
2018-05-08T21:37:15.183Z,66.70
2018-05-08T21:39:43.501Z,66.60
2018-05-08T21:42:14.292Z,67.10
2018-05-08T21:44:43.392Z,67.90
2018-05-08T21:47:10.913Z,67.90
2018-05-08T21:49:38.281Z,68.20
2018-05-08T21:52:05.976Z,68.50
2018-05-08T21:54:33.462Z,69.10
2018-05-08T21:57:01.552Z,69.30
2018-05-08T21:59:31.367Z,69.60
2018-05-08T22:01:58.712Z,69.90
2018-05-08T22:04:26.481Z,70.20
2018-05-08T22:06:53.831Z,70.30
2018-05-08T22:09:25.244Z,70.60
2018-05-08T22:11:52.591Z,70.80
2018-05-08T22:14:21.701Z,71.40
2018-05-08T22:16:50.240Z,71.40
2018-05-08T22:19:18.552Z,71.80
2018-05-08T22:21:46.970Z,72.40
2018-05-08T22:24:14.831Z,72.70
2018-05-08T22:26:45.021Z,73.10
2018-05-08T22:29:12.462Z,73.60
2018-05-08T22:31:39.871Z,74.20
2018-05-08T22:34:13.171Z,74.40
2018-05-08T22:36:42.001Z,74.80
2018-05-08T22:39:09.351Z,75.20
2018-05-08T22:41:40.051Z,75.30
2018-05-08T22:44:07.490Z,75.30
2018-05-08T22:46:34.771Z,75.70
2018-05-08T22:49:03.701Z,76.20
2018-05-08T22:51:32.241Z,76.00
2018-05-08T22:54:00.531Z,76.00
2018-05-08T22:56:28.041Z,75.90
2018-05-08T22:58:55.851Z,76.00
2018-05-08T23:01:23.221Z,76.00
2018-05-08T23:03:50.653Z,76.00
2018-05-08T23:06:18.734Z,76.20
2018-05-08T23:08:46.434Z,76.10
2018-05-08T23:11:14.071Z,76.60
2018-05-08T23:13:45.251Z,77.60
2018-05-08T23:16:12.831Z,77.50
2018-05-08T23:18:42.291Z,77.90
2018-05-08T23:21:09.711Z,77.90
2018-05-08T23:23:37.254Z,77.70
2018-05-08T23:26:04.731Z,77.40
2018-05-08T23:28:32.941Z,77.60
2018-05-08T23:31:01.071Z,77.60
2018-05-08T23:33:28.591Z,77.90
2018-05-08T23:35:56.631Z,78.10
2018-05-08T23:38:24.194Z,79.10
2018-05-08T23:40:51.603Z,79.60
2018-05-08T23:43:19.251Z,80.20
2018-05-08T23:45:47.963Z,80.60
2018-05-08T23:48:16.503Z,81.00
2018-05-08T23:50:44.022Z,81.20
2018-05-08T23:53:11.750Z,81.80
2018-05-08T23:55:39.843Z,82.00
2018-05-08T23:58:07.341Z,82.40
